• Join FlightAware (Why Join?)
  • Login
  • US Flag 
03:51PM EDT


 

Airport Tracker/Info


-or-


 

Live Flight TrackerFlight Track Log ✈ SWA1969 ✈ 22-Apr-2013 ✈ KDAL - KMCI

Flight Track Log - Related Links

Times and Time Zones

All times are in EDT time to prevent confusion due to time zone crossing. See the SWA1969 flight status page for this flight to view local times or setup timezone preferences in your user account.

Time Position Orientation Groundspeed Altitude Reporting Facility
EDT Latitude Longitude Course Direction KTS MPH feet Rate Location/Type
09:05AM 32.8167 -96.8000 90° East 185 213 2,500  Level Dallas / Fort Worth TRACON
09:06AM 32.8167 -96.7500 90° East 244 281 5,200 2,760 Climbing Dallas / Fort Worth TRACON
09:07AM 32.8833 -96.7500 360° North 269 310 8,100 2,760 Climbing Dallas / Fort Worth TRACON
09:09AM 33.0325 -96.8361 334° Northwest 317 365 13,600 2,820 Climbing Fort Worth Center
09:10AM 33.1161 -96.8900 332° Northwest 331 381 16,700 2,700 Climbing Fort Worth Center
09:11AM 33.2144 -96.9542 331° Northwest 353 406 19,100 2,640 Climbing Fort Worth Center
09:12AM 33.3044 -97.0133 331° Northwest 362 417 22,000 2,520 Climbing Fort Worth Center
09:13AM 33.3986 -97.0750 331° Northwest 375 432 24,200 1,860 Climbing Fort Worth Center
09:14AM 33.5072 -97.1019 348° North 380 437 25,800 1,740 Climbing Fort Worth Center
09:15AM 33.6075 -97.0917 North 407 468 27,700 1,680 Climbing Fort Worth Center
09:16AM 33.7264 -97.0764 North 412 474 29,200 1,680 Climbing Fort Worth Center
09:17AM 33.8431 -97.0608 North 418 481 31,100 1,680 Climbing Fort Worth Center
09:18AM 33.9600 -97.0453 North 423 487 32,600 1,440 Climbing Fort Worth Center
09:19AM 34.0767 -97.0322 North 423 487 34,000 1,140 Climbing Fort Worth Center
09:20AM 34.1872 -97.0169 North 413 475 34,900 900 Climbing Fort Worth Center
09:21AM 34.3061 -97.0036 North 413 475 35,800 900 Climbing Fort Worth Center
09:22AM 34.4292 -96.9628 15° North 429 494 36,700 600 Climbing Fort Worth Center
09:23AM 34.5417 -96.8892 28° Northeast 439 505 37,000 120 Climbing Fort Worth Center
09:24AM 34.6539 -96.8178 28° Northeast 452 520 37,000  Level Fort Worth Center
09:25AM 34.7661 -96.7436 28° Northeast 452 520 37,000  Level Fort Worth Center
09:26AM 34.8806 -96.6694 28° Northeast 452 520 37,000  Level Fort Worth Center
09:27AM 34.9906 -96.5950 29° Northeast 452 520 37,000  Level Fort Worth Center
09:28AM 35.1006 -96.5203 29° Northeast 452 520 37,000  Level Fort Worth Center
09:29AM 35.2147 -96.4481 27° Northeast 452 520 37,000  Level Fort Worth Center
09:31AM 35.4517 -96.2886 29° Northeast 452 520 37,000  Level Kansas City Center
09:32AM 35.5622 -96.2158 28° Northeast 452 520 37,000  Level Kansas City Center
09:34AM 35.7247 -96.1537 12° North  Level Estimated
09:34AM 35.7886 -96.0639 12° North 451 519 37,000  Level Kansas City Center
09:35AM 35.8989 -95.9906 28° Northeast 449 517 37,000  Level Kansas City Center
09:36AM 36.0097 -95.9167 28° Northeast 450 518 37,000  Level Kansas City Center
09:37AM 36.1197 -95.8419 29° Northeast 450 518 37,000  Level Kansas City Center
09:38AM 36.2353 -95.7839 22° Northeast 444 511 37,000  Level Kansas City Center
09:39AM 36.3758 -95.7644 North 422 486 37,000  Level Kansas City Center
09:40AM 36.4797 -95.7508 North 422 486 37,000  Level Kansas City Center
09:41AM 36.6136 -95.7328 North 422 486 37,000  Level Kansas City Center
09:42AM 36.7311 -95.7161 North 421 484 37,000  Level Kansas City Center
09:43AM 36.8478 -95.7008 North 419 482 37,000  Level Kansas City Center
09:44AM 36.9650 -95.6867 North 419 482 37,000  Level Kansas City Center
09:45AM 37.0814 -95.6706 North 419 482 37,000  Level Kansas City Center
09:46AM 37.1986 -95.6547 North 421 484 37,000  Level Kansas City Center
09:47AM 37.3144 -95.6386 North 419 482 37,000  Level Kansas City Center
09:48AM 37.4308 -95.6217 North 418 481 37,000  Level Kansas City Center
09:49AM 37.5697 -95.6022 North 417 480 37,000  Level Kansas City Center
09:51AM 37.6869 -95.5853 North 420 483 37,000  Level Kansas City Center
09:52AM 37.8056 -95.5669 North 426 490 37,000 -1,140 Level Kansas City Center
09:53AM 37.9239 -95.5508 North 428 493 34,800 -3,000 Descending Kansas City Center
09:54AM 38.0489 -95.5336 North 437 503 30,800 -3,360 Descending Kansas City Center
09:55AM 38.1653 -95.5158 North 441 507 27,800 -2,580 Descending Kansas City Center
09:56AM 38.2942 -95.4967 North 418 481 25,600 -1,920 Descending Kansas City Center
09:57AM 38.3981 -95.4828 North 395 455 23,900 -1,800 Descending Kansas City Center
09:58AM 38.5144 -95.4650 North 377 434 21,900 -1,800 Descending Kansas City Center
09:59AM 38.6111 -95.4492 North 368 423 20,300 -1,680 Descending Kansas City Center
10:00AM 38.7200 -95.4322 North 351 404 18,500 -1,680 Descending Kansas City Center
10:01AM 38.8114 -95.4100 11° North 350 403 16,900 -1,680 Descending Kansas City Center
10:02AM 38.8861 -95.3067 47° Northeast 355 409 15,100 -1,680 Descending Kansas City Center
10:03AM 38.9492 -95.2175 48° Northeast 346 398 13,500 -1,500 Descending Kansas City Center
10:04AM 39.0094 -95.1331 47° Northeast 343 395 12,100 -780 Descending Kansas City Center
10:05AM 39.0758 -95.0378 48° Northeast 322 371 12,000 -540 Descending Kansas City Center
10:06AM 39.1289 -94.9617 48° Northeast 301 346 11,000 -1,080 Descending Kansas City Center
10:07AM 39.1894 -94.8764 47° Northeast 291 335 9,800 -1,080 Descending Kansas City Center
10:08AM 39.2575 -94.8539 14° North 266 306 8,800 -1,140 Descending Kansas City Center
10:09AM 39.3344 -94.8339 11° North 254 292 7,500 -1,260 Descending Kansas City Center
10:10AM 39.3981 -94.8136 14° North 247 284 6,300 -1,080 Descending Kansas City Center
10:11AM 39.4508 -94.7667 34° Northeast 214 246 5,300 -1,200 Descending Kansas City Center
10:12AM 39.4536 -94.7011 87° East 189 217 3,900 -1,140 Descending Kansas City Center
10:13AM 39.4178 -94.6900 167° South 133 153 3,000 -720 Descending Kansas City Center
10:14AM 39.3850 -94.7028 197° South 129 148 2,400 -780 Descending Kansas City Center
10:15AM 39.3442 -94.7144 192° South 134 154 1,500 -720 Descending Kansas City Center
10:16AM 39.3106 -94.7244 193° South 135 155 1,000 -540 Descending Kansas City Center